sensor_id;sensor_type;location;lat;lon;timestamp;pressure;altitude;pressure_sealevel;temperature;humidity
61359;BME280;47228;46.762;23.598;2023-03-13T00:01:28;97533.87;;;-1.76;61.55
61359;BME280;47228;46.762;23.598;2023-03-13T00:03:56;97532.33;;;-1.76;61.05
61359;BME280;47228;46.762;23.598;2023-03-13T00:06:30;97536.55;;;-1.77;60.94
61359;BME280;47228;46.762;23.598;2023-03-13T00:09:02;97540.88;;;-1.77;61.02
61359;BME280;47228;46.762;23.598;2023-03-13T00:11:32;97548.45;;;-1.76;61.28
61359;BME280;47228;46.762;23.598;2023-03-13T00:14:01;97546.39;;;-1.76;61.39
61359;BME280;47228;46.762;23.598;2023-03-13T00:16:30;97548.89;;;-1.77;61.20
61359;BME280;47228;46.762;23.598;2023-03-13T00:18:58;97552.31;;;-1.78;60.84
61359;BME280;47228;46.762;23.598;2023-03-13T00:21:29;97557.52;;;-1.81;60.72
61359;BME280;47228;46.762;23.598;2023-03-13T00:23:58;97569.61;;;-1.83;60.75
61359;BME280;47228;46.762;23.598;2023-03-13T00:26:27;97575.67;;;-1.85;60.72
61359;BME280;47228;46.762;23.598;2023-03-13T00:28:56;97585.25;;;-1.87;60.91
61359;BME280;47228;46.762;23.598;2023-03-13T00:31:26;97592.90;;;-1.90;61.03
61359;BME280;47228;46.762;23.598;2023-03-13T00:34:00;97583.05;;;-1.92;61.21
61359;BME280;47228;46.762;23.598;2023-03-13T00:36:32;97575.54;;;-1.94;61.19
61359;BME280;47228;46.762;23.598;2023-03-13T00:39:00;97572.23;;;-1.96;60.85
61359;BME280;47228;46.762;23.598;2023-03-13T00:41:31;97573.54;;;-1.98;60.88
61359;BME280;47228;46.762;23.598;2023-03-13T00:44:00;97569.27;;;-1.96;60.89
61359;BME280;47228;46.762;23.598;2023-03-13T00:46:29;97565.54;;;-1.95;60.88
61359;BME280;47228;46.762;23.598;2023-03-13T00:48:58;97560.14;;;-1.92;60.62
61359;BME280;47228;46.762;23.598;2023-03-13T00:51:26;97562.39;;;-1.90;60.52
61359;BME280;47228;46.762;23.598;2023-03-13T00:53:56;97565.53;;;-1.88;60.41
61359;BME280;47228;46.762;23.598;2023-03-13T00:56:27;97569.25;;;-1.87;60.44
61359;BME280;47228;46.762;23.598;2023-03-13T00:58:56;97563.05;;;-1.85;60.38
61359;BME280;47228;46.762;23.598;2023-03-13T01:01:31;97559.65;;;-1.84;60.38
61359;BME280;47228;46.762;23.598;2023-03-13T01:04:02;97555.27;;;-1.84;60.70
61359;BME280;47228;46.762;23.598;2023-03-13T01:06:33;97553.16;;;-1.83;60.83
61359;BME280;47228;46.762;23.598;2023-03-13T01:09:04;97558.99;;;-1.84;61.13
61359;BME280;47228;46.762;23.598;2023-03-13T01:11:38;97562.52;;;-1.85;61.38
61359;BME280;47228;46.762;23.598;2023-03-13T01:14:11;97563.77;;;-1.87;61.40
61359;BME280;47228;46.762;23.598;2023-03-13T01:16:40;97563.34;;;-1.96;61.46
61359;BME280;47228;46.762;23.598;2023-03-13T01:19:11;97558.30;;;-2.00;61.62
61359;BME280;47228;46.762;23.598;2023-03-13T01:21:41;97547.66;;;-2.02;61.92
61359;BME280;47228;46.762;23.598;2023-03-13T01:24:10;97551.30;;;-2.02;62.02
61359;BME280;47228;46.762;23.598;2023-03-13T01:26:38;97554.05;;;-2.04;62.02
61359;BME280;47228;46.762;23.598;2023-03-13T01:29:05;97554.42;;;-2.09;62.13
61359;BME280;47228;46.762;23.598;2023-03-13T01:31:35;97558.40;;;-2.13;62.18
61359;BME280;47228;46.762;23.598;2023-03-13T01:34:05;97556.33;;;-2.15;62.33
61359;BME280;47228;46.762;23.598;2023-03-13T01:36:35;97553.80;;;-2.18;62.37
61359;BME280;47228;46.762;23.598;2023-03-13T01:39:04;97553.67;;;-2.22;62.43
61359;BME280;47228;46.762;23.598;2023-03-13T01:41:32;97559.74;;;-2.24;62.55
61359;BME280;47228;46.762;23.598;2023-03-13T01:44:00;97569.23;;;-2.26;62.73
61359;BME280;47228;46.762;23.598;2023-03-13T01:46:29;97572.41;;;-2.31;62.72
61359;BME280;47228;46.762;23.598;2023-03-13T01:49:13;97573.27;;;-2.38;62.82
61359;BME280;47228;46.762;23.598;2023-03-13T01:51:48;97574.57;;;-2.43;62.76
61359;BME280;47228;46.762;23.598;2023-03-13T01:57:34;97572.80;;;-2.45;63.34
61359;BME280;47228;46.762;23.598;2023-03-13T02:00:14;97564.79;;;-2.40;63.32
61359;BME280;47228;46.762;23.598;2023-03-13T02:02:49;97570.92;;;-2.34;63.35
61359;BME280;47228;46.762;23.598;2023-03-13T02:05:20;97576.98;;;-2.29;63.02
61359;BME280;47228;46.762;23.598;2023-03-13T02:07:56;97580.02;;;-2.26;62.88
61359;BME280;47228;46.762;23.598;2023-03-13T02:10:28;97582.75;;;-2.23;62.71
61359;BME280;47228;46.762;23.598;2023-03-13T02:12:58;97589.59;;;-2.19;62.86
61359;BME280;47228;46.762;23.598;2023-03-13T02:15:29;97594.84;;;-2.17;62.70
61359;BME280;47228;46.762;23.598;2023-03-13T02:17:57;97597.50;;;-2.16;63.01
61359;BME280;47228;46.762;23.598;2023-03-13T02:20:26;97596.15;;;-2.14;63.35
61359;BME280;47228;46.762;23.598;2023-03-13T02:25:51;97601.06;;;-2.17;63.47
61359;BME280;47228;46.762;23.598;2023-03-13T02:28:23;97601.65;;;-2.21;63.59
61359;BME280;47228;46.762;23.598;2023-03-13T02:30:55;97600.32;;;-2.24;63.82
61359;BME280;47228;46.762;23.598;2023-03-13T02:33:28;97597.81;;;-2.27;63.89
61359;BME280;47228;46.762;23.598;2023-03-13T02:35:58;97594.65;;;-2.31;64.06
61359;BME280;47228;46.762;23.598;2023-03-13T02:38:30;97596.30;;;-2.35;64.21
61359;BME280;47228;46.762;23.598;2023-03-13T02:41:00;97593.08;;;-2.36;64.40
61359;BME280;47228;46.762;23.598;2023-03-13T02:43:32;97591.00;;;-2.36;64.44
61359;BME280;47228;46.762;23.598;2023-03-13T02:46:09;97584.38;;;-2.36;64.47
61359;BME280;47228;46.762;23.598;2023-03-13T02:48:50;97581.59;;;-2.33;64.62
61359;BME280;47228;46.762;23.598;2023-03-13T02:51:26;97580.67;;;-2.30;64.97
61359;BME280;47228;46.762;23.598;2023-03-13T02:53:59;97579.87;;;-2.29;64.74
61359;BME280;47228;46.762;23.598;2023-03-13T02:56:30;97579.52;;;-2.26;64.92
61359;BME280;47228;46.762;23.598;2023-03-13T02:59:00;97584.27;;;-2.25;64.86
61359;BME280;47228;46.762;23.598;2023-03-13T03:01:28;97586.13;;;-2.24;65.10
61359;BME280;47228;46.762;23.598;2023-03-13T03:03:55;97590.95;;;-2.26;65.12
61359;BME280;47228;46.762;23.598;2023-03-13T03:06:24;97594.52;;;-2.29;65.03
61359;BME280;47228;46.762;23.598;2023-03-13T03:08:52;97589.81;;;-2.32;64.93
61359;BME280;47228;46.762;23.598;2023-03-13T03:11:20;97591.58;;;-2.34;64.95
61359;BME280;47228;46.762;23.598;2023-03-13T03:13:48;97588.26;;;-2.36;65.25
61359;BME280;47228;46.762;23.598;2023-03-13T03:16:16;97590.94;;;-2.37;65.52
61359;BME280;47228;46.762;23.598;2023-03-13T03:18:47;97591.45;;;-2.40;65.69
61359;BME280;47228;46.762;23.598;2023-03-13T03:21:15;97593.45;;;-2.43;65.50
61359;BME280;47228;46.762;23.598;2023-03-13T03:23:43;97591.22;;;-2.46;65.58
61359;BME280;47228;46.762;23.598;2023-03-13T03:26:11;97593.52;;;-2.49;65.82
61359;BME280;47228;46.762;23.598;2023-03-13T03:28:39;97599.81;;;-2.50;65.85
61359;BME280;47228;46.762;23.598;2023-03-13T03:31:09;97604.27;;;-2.49;65.91
61359;BME280;47228;46.762;23.598;2023-03-13T03:33:38;97603.27;;;-2.47;65.99
61359;BME280;47228;46.762;23.598;2023-03-13T03:36:08;97605.45;;;-2.44;66.03
61359;BME280;47228;46.762;23.598;2023-03-13T03:38:38;97611.77;;;-2.42;66.07
61359;BME280;47228;46.762;23.598;2023-03-13T03:41:07;97612.81;;;-2.40;66.22
61359;BME280;47228;46.762;23.598;2023-03-13T03:43:36;97614.73;;;-2.38;66.26
61359;BME280;47228;46.762;23.598;2023-03-13T03:46:05;97613.39;;;-2.39;66.11
61359;BME280;47228;46.762;23.598;2023-03-13T03:48:34;97606.84;;;-2.41;66.27
61359;BME280;47228;46.762;23.598;2023-03-13T03:51:03;97602.15;;;-2.44;66.28
61359;BME280;47228;46.762;23.598;2023-03-13T03:53:31;97600.10;;;-2.44;66.60
61359;BME280;47228;46.762;23.598;2023-03-13T03:56:00;97608.83;;;-2.42;66.39
61359;BME280;47228;46.762;23.598;2023-03-13T03:58:28;97618.98;;;-2.41;66.40
61359;BME280;47228;46.762;23.598;2023-03-13T04:00:56;97628.35;;;-2.41;66.68
61359;BME280;47228;46.762;23.598;2023-03-13T04:03:25;97631.23;;;-2.42;66.53
61359;BME280;47228;46.762;23.598;2023-03-13T04:05:53;97630.35;;;-2.45;66.47
61359;BME280;47228;46.762;23.598;2023-03-13T04:08:21;97628.91;;;-2.47;66.50
61359;BME280;47228;46.762;23.598;2023-03-13T04:10:49;97631.55;;;-2.45;66.66
61359;BME280;47228;46.762;23.598;2023-03-13T04:13:18;97636.09;;;-2.43;66.69
61359;BME280;47228;46.762;23.598;2023-03-13T04:15:46;97636.05;;;-2.42;66.65
61359;BME280;47228;46.762;23.598;2023-03-13T04:18:15;97631.45;;;-2.41;67.08
61359;BME280;47228;46.762;23.598;2023-03-13T04:20:43;97631.13;;;-2.41;67.05
61359;BME280;47228;46.762;23.598;2023-03-13T04:23:11;97632.73;;;-2.39;67.40
61359;BME280;47228;46.762;23.598;2023-03-13T04:25:39;97628.98;;;-2.38;67.46
61359;BME280;47228;46.762;23.598;2023-03-13T04:28:07;97613.66;;;-2.37;67.67
61359;BME280;47228;46.762;23.598;2023-03-13T04:30:36;97614.46;;;-2.37;67.49
61359;BME280;47228;46.762;23.598;2023-03-13T04:33:04;97622.02;;;-2.36;67.07
61359;BME280;47228;46.762;23.598;2023-03-13T04:35:32;97626.55;;;-2.36;66.99
61359;BME280;47228;46.762;23.598;2023-03-13T04:38:00;97615.54;;;-2.35;67.36
61359;BME280;47228;46.762;23.598;2023-03-13T04:40:29;97612.42;;;-2.35;67.38
61359;BME280;47228;46.762;23.598;2023-03-13T04:42:57;97615.06;;;-2.35;67.48
61359;BME280;47228;46.762;23.598;2023-03-13T04:45:25;97614.49;;;-2.35;67.45
61359;BME280;47228;46.762;23.598;2023-03-13T04:47:53;97613.86;;;-2.35;67.50
61359;BME280;47228;46.762;23.598;2023-03-13T04:50:21;97625.61;;;-2.37;67.34
61359;BME280;47228;46.762;23.598;2023-03-13T04:52:49;97641.88;;;-2.37;67.31
61359;BME280;47228;46.762;23.598;2023-03-13T04:55:17;97635.52;;;-2.32;67.53
61359;BME280;47228;46.762;23.598;2023-03-13T04:57:50;97637.46;;;-2.29;67.43
61359;BME280;47228;46.762;23.598;2023-03-13T05:00:19;97642.24;;;-2.23;67.47
61359;BME280;47228;46.762;23.598;2023-03-13T05:02:47;97645.01;;;-2.18;67.50
61359;BME280;47228;46.762;23.598;2023-03-13T05:05:15;97648.10;;;-2.15;67.52
61359;BME280;47228;46.762;23.598;2023-03-13T05:07:43;97649.98;;;-2.15;67.47
61359;BME280;47228;46.762;23.598;2023-03-13T05:10:11;97658.00;;;-2.13;67.50
61359;BME280;47228;46.762;23.598;2023-03-13T05:12:39;97663.19;;;-2.10;67.39
61359;BME280;47228;46.762;23.598;2023-03-13T05:15:07;97660.92;;;-2.08;67.51
61359;BME280;47228;46.762;23.598;2023-03-13T05:17:35;97668.73;;;-2.06;67.38
61359;BME280;47228;46.762;23.598;2023-03-13T05:20:04;97680.33;;;-2.03;67.61
61359;BME280;47228;46.762;23.598;2023-03-13T05:22:34;97687.86;;;-2.01;67.61
61359;BME280;47228;46.762;23.598;2023-03-13T05:25:03;97681.13;;;-2.00;67.49
61359;BME280;47228;46.762;23.598;2023-03-13T05:27:31;97674.80;;;-1.99;67.59
61359;BME280;47228;46.762;23.598;2023-03-13T05:29:59;97669.33;;;-2.00;67.28
61359;BME280;47228;46.762;23.598;2023-03-13T05:32:28;97669.55;;;-2.00;67.08
61359;BME280;47228;46.762;23.598;2023-03-13T05:34:55;97663.94;;;-1.99;66.96
61359;BME280;47228;46.762;23.598;2023-03-13T05:37:24;97655.52;;;-1.98;66.80
61359;BME280;47228;46.762;23.598;2023-03-13T05:39:52;97663.63;;;-1.95;66.79
61359;BME280;47228;46.762;23.598;2023-03-13T05:42:20;97665.02;;;-1.93;66.98
61359;BME280;47228;46.762;23.598;2023-03-13T05:44:48;97664.02;;;-1.91;66.97
61359;BME280;47228;46.762;23.598;2023-03-13T05:47:16;97668.40;;;-1.87;66.88
61359;BME280;47228;46.762;23.598;2023-03-13T05:49:45;97675.92;;;-1.83;66.90
61359;BME280;47228;46.762;23.598;2023-03-13T05:52:13;97678.11;;;-1.80;66.68
61359;BME280;47228;46.762;23.598;2023-03-13T05:54:41;97686.91;;;-1.77;66.51
61359;BME280;47228;46.762;23.598;2023-03-13T05:57:10;97690.23;;;-1.75;66.49
61359;BME280;47228;46.762;23.598;2023-03-13T05:59:38;97686.51;;;-1.72;66.65
61359;BME280;47228;46.762;23.598;2023-03-13T06:02:06;97691.25;;;-1.68;66.35
61359;BME280;47228;46.762;23.598;2023-03-13T06:04:34;97687.39;;;-1.64;66.27
61359;BME280;47228;46.762;23.598;2023-03-13T06:07:02;97686.52;;;-1.62;66.08
61359;BME280;47228;46.762;23.598;2023-03-13T06:09:30;97688.55;;;-1.59;66.06
61359;BME280;47228;46.762;23.598;2023-03-13T06:11:58;97688.94;;;-1.58;66.14
61359;BME280;47228;46.762;23.598;2023-03-13T06:14:26;97690.56;;;-1.56;66.07
61359;BME280;47228;46.762;23.598;2023-03-13T06:16:55;97691.94;;;-1.56;66.04
61359;BME280;47228;46.762;23.598;2023-03-13T06:19:23;97696.13;;;-1.57;65.70
61359;BME280;47228;46.762;23.598;2023-03-13T06:21:51;97695.68;;;-1.57;65.76
61359;BME280;47228;46.762;23.598;2023-03-13T06:24:19;97691.88;;;-1.57;65.73
61359;BME280;47228;46.762;23.598;2023-03-13T06:26:48;97694.24;;;-1.57;65.89
61359;BME280;47228;46.762;23.598;2023-03-13T06:29:17;97696.47;;;-1.54;65.88
61359;BME280;47228;46.762;23.598;2023-03-13T06:31:45;97690.66;;;-1.48;66.14
61359;BME280;47228;46.762;23.598;2023-03-13T06:34:13;97692.39;;;-1.39;66.24
61359;BME280;47228;46.762;23.598;2023-03-13T06:36:41;97685.16;;;-1.28;66.24
61359;BME280;47228;46.762;23.598;2023-03-13T06:39:11;97683.30;;;-1.18;65.92
61359;BME280;47228;46.762;23.598;2023-03-13T06:41:39;97683.42;;;-1.10;65.57
61359;BME280;47228;46.762;23.598;2023-03-13T06:44:07;97687.23;;;-1.02;65.40
61359;BME280;47228;46.762;23.598;2023-03-13T06:46:35;97689.92;;;-0.89;65.29
61359;BME280;47228;46.762;23.598;2023-03-13T06:49:03;97689.02;;;-0.77;65.07
61359;BME280;47228;46.762;23.598;2023-03-13T06:51:32;97693.66;;;-0.68;64.54
61359;BME280;47228;46.762;23.598;2023-03-13T06:54:01;97700.29;;;-0.59;64.24
61359;BME280;47228;46.762;23.598;2023-03-13T06:56:30;97704.84;;;-0.55;63.40
61359;BME280;47228;46.762;23.598;2023-03-13T06:58:58;97710.98;;;-0.52;63.52
61359;BME280;47228;46.762;23.598;2023-03-13T07:01:26;97701.34;;;-0.46;63.70
61359;BME280;47228;46.762;23.598;2023-03-13T07:03:55;97696.89;;;-0.38;63.48
61359;BME280;47228;46.762;23.598;2023-03-13T07:06:23;97692.40;;;-0.30;63.19
61359;BME280;47228;46.762;23.598;2023-03-13T07:08:51;97688.69;;;-0.21;63.05
61359;BME280;47228;46.762;23.598;2023-03-13T07:11:19;97687.49;;;-0.11;62.86
61359;BME280;47228;46.762;23.598;2023-03-13T07:13:47;97682.96;;;0.00;62.94
61359;BME280;47228;46.762;23.598;2023-03-13T07:16:15;97675.52;;;0.10;62.29
61359;BME280;47228;46.762;23.598;2023-03-13T07:18:44;97680.73;;;0.19;61.79
61359;BME280;47228;46.762;23.598;2023-03-13T07:21:12;97681.45;;;0.27;61.45
61359;BME280;47228;46.762;23.598;2023-03-13T07:23:41;97678.04;;;0.32;60.81
61359;BME280;47228;46.762;23.598;2023-03-13T07:26:13;97683.81;;;0.38;60.53
61359;BME280;47228;46.762;23.598;2023-03-13T07:28:42;97688.23;;;0.42;59.97
61359;BME280;47228;46.762;23.598;2023-03-13T07:31:16;97685.68;;;0.43;59.79
61359;BME280;47228;46.762;23.598;2023-03-13T07:33:44;97683.81;;;0.49;59.42
61359;BME280;47228;46.762;23.598;2023-03-13T07:36:14;97684.29;;;0.57;59.38
61359;BME280;47228;46.762;23.598;2023-03-13T07:38:46;97691.38;;;0.68;58.93
61359;BME280;47228;46.762;23.598;2023-03-13T07:41:14;97697.02;;;0.80;59.42
61359;BME280;47228;46.762;23.598;2023-03-13T07:43:42;97697.05;;;0.96;59.28
61359;BME280;47228;46.762;23.598;2023-03-13T07:46:13;97693.83;;;1.09;58.56
61359;BME280;47228;46.762;23.598;2023-03-13T07:48:42;97694.82;;;1.22;58.59
61359;BME280;47228;46.762;23.598;2023-03-13T07:51:15;97699.20;;;1.38;58.14
61359;BME280;47228;46.762;23.598;2023-03-13T07:53:44;97697.94;;;1.50;57.67
61359;BME280;47228;46.762;23.598;2023-03-13T07:56:16;97691.38;;;1.63;57.76
61359;BME280;47228;46.762;23.598;2023-03-13T07:58:44;97690.95;;;1.76;57.22
61359;BME280;47228;46.762;23.598;2023-03-13T08:01:21;97696.36;;;1.86;56.62
61359;BME280;47228;46.762;23.598;2023-03-13T08:03:53;97697.84;;;1.92;56.04
61359;BME280;47228;46.762;23.598;2023-03-13T08:06:23;97694.43;;;1.96;55.23
61359;BME280;47228;46.762;23.598;2023-03-13T08:08:56;97685.87;;;1.98;55.41
61359;BME280;47228;46.762;23.598;2023-03-13T08:11:26;97684.65;;;2.03;55.58
61359;BME280;47228;46.762;23.598;2023-03-13T08:13:55;97685.70;;;2.11;55.54
61359;BME280;47228;46.762;23.598;2023-03-13T08:16:26;97683.36;;;2.20;55.28
61359;BME280;47228;46.762;23.598;2023-03-13T08:18:56;97676.90;;;2.27;54.27
61359;BME280;47228;46.762;23.598;2023-03-13T08:21:29;97678.13;;;2.41;54.35
61359;BME280;47228;46.762;23.598;2023-03-13T08:23:59;97670.85;;;2.59;54.87
61359;BME280;47228;46.762;23.598;2023-03-13T08:26:29;97674.30;;;2.78;54.51
61359;BME280;47228;46.762;23.598;2023-03-13T08:29:03;97680.45;;;2.96;54.43
61359;BME280;47228;46.762;23.598;2023-03-13T08:31:32;97685.73;;;3.18;53.93
61359;BME280;47228;46.762;23.598;2023-03-13T08:34:00;97681.15;;;3.35;53.18
61359;BME280;47228;46.762;23.598;2023-03-13T08:36:32;97678.70;;;3.54;52.95
61359;BME280;47228;46.762;23.598;2023-03-13T08:39:06;97680.03;;;3.72;51.55
61359;BME280;47228;46.762;23.598;2023-03-13T08:41:36;97677.29;;;3.86;50.70
61359;BME280;47228;46.762;23.598;2023-03-13T08:44:05;97673.42;;;4.01;50.87
61359;BME280;47228;46.762;23.598;2023-03-13T08:46:34;97670.34;;;4.11;50.01
61359;BME280;47228;46.762;23.598;2023-03-13T08:49:05;97667.73;;;4.23;50.26
61359;BME280;47228;46.762;23.598;2023-03-13T08:51:33;97666.86;;;4.33;50.04
61359;BME280;47228;46.762;23.598;2023-03-13T08:54:02;97672.55;;;4.45;49.76
61359;BME280;47228;46.762;23.598;2023-03-13T08:56:31;97680.13;;;4.60;49.94
61359;BME280;47228;46.762;23.598;2023-03-13T08:59:01;97680.02;;;4.75;49.96
61359;BME280;47228;46.762;23.598;2023-03-13T09:01:32;97676.41;;;4.92;50.17
61359;BME280;47228;46.762;23.598;2023-03-13T09:04:01;97678.88;;;5.12;49.95
61359;BME280;47228;46.762;23.598;2023-03-13T09:06:33;97678.68;;;5.28;49.22
61359;BME280;47228;46.762;23.598;2023-03-13T09:09:03;97679.00;;;5.42;48.82
61359;BME280;47228;46.762;23.598;2023-03-13T09:11:32;97679.93;;;5.56;48.71
61359;BME280;47228;46.762;23.598;2023-03-13T09:14:01;97677.13;;;5.76;48.81
61359;BME280;47228;46.762;23.598;2023-03-13T09:16:31;97677.23;;;5.95;48.44
61359;BME280;47228;46.762;23.598;2023-03-13T09:18:59;97671.28;;;6.07;47.68
61359;BME280;47228;46.762;23.598;2023-03-13T09:21:30;97670.42;;;6.13;47.84
61359;BME280;47228;46.762;23.598;2023-03-13T09:23:58;97670.53;;;6.25;47.93
61359;BME280;47228;46.762;23.598;2023-03-13T09:26:27;97670.30;;;6.41;47.23
61359;BME280;47228;46.762;23.598;2023-03-13T09:28:56;97666.48;;;6.51;46.32
61359;BME280;47228;46.762;23.598;2023-03-13T09:31:29;97666.10;;;6.55;45.91
61359;BME280;47228;46.762;23.598;2023-03-13T09:33:58;97663.02;;;6.61;45.95
61359;BME280;47228;46.762;23.598;2023-03-13T09:36:27;97663.67;;;6.71;46.13
61359;BME280;47228;46.762;23.598;2023-03-13T09:38:57;97657.81;;;6.84;45.87
61359;BME280;47228;46.762;23.598;2023-03-13T09:41:39;97655.08;;;6.98;45.46
61359;BME280;47228;46.762;23.598;2023-03-13T09:52:12;97639.46;;;7.51;43.55
61359;BME280;47228;46.762;23.598;2023-03-13T09:54:55;97633.91;;;7.61;42.45
61359;BME280;47228;46.762;23.598;2023-03-13T10:00:15;97630.25;;;7.84;42.56
61359;BME280;47228;46.762;23.598;2023-03-13T10:03:02;97628.73;;;8.02;42.55
61359;BME280;47228;46.762;23.598;2023-03-13T10:05:32;97621.21;;;8.24;41.85
61359;BME280;47228;46.762;23.598;2023-03-13T10:08:11;97619.58;;;8.35;41.52
61359;BME280;47228;46.762;23.598;2023-03-13T10:11:31;97613.60;;;8.48;41.54
61359;BME280;47228;46.762;23.598;2023-03-13T10:13:47;97608.43;;;8.62;40.43
61359;BME280;47228;46.762;23.598;2023-03-13T10:16:33;97604.49;;;8.76;40.12
61359;BME280;47228;46.762;23.598;2023-03-13T10:19:12;97600.79;;;8.88;39.99
61359;BME280;47228;46.762;23.598;2023-03-13T10:21:43;97595.12;;;8.94;39.70
61359;BME280;47228;46.762;23.598;2023-03-13T10:24:33;97583.14;;;9.00;39.52
61359;BME280;47228;46.762;23.598;2023-03-13T10:27:04;97577.02;;;9.11;39.72
61359;BME280;47228;46.762;23.598;2023-03-13T10:29:32;97572.71;;;9.25;38.56
61359;BME280;47228;46.762;23.598;2023-03-13T10:32:02;97568.88;;;9.43;39.01
61359;BME280;47228;46.762;23.598;2023-03-13T10:34:56;97567.55;;;9.64;38.08
61359;BME280;47228;46.762;23.598;2023-03-13T10:40:13;97561.27;;;10.08;36.13
61359;BME280;47228;46.762;23.598;2023-03-13T10:42:43;97556.02;;;10.23;35.59
61359;BME280;47228;46.762;23.598;2023-03-13T10:45:17;97547.80;;;10.32;35.54
61359;BME280;47228;46.762;23.598;2023-03-13T10:47:51;97544.99;;;10.40;34.50
61359;BME280;47228;46.762;23.598;2023-03-13T10:50:22;97542.66;;;10.46;34.65
61359;BME280;47228;46.762;23.598;2023-03-13T10:52:51;97546.10;;;10.56;35.05
61359;BME280;47228;46.762;23.598;2023-03-13T10:55:24;97543.25;;;10.70;34.65
61359;BME280;47228;46.762;23.598;2023-03-13T10:57:56;97544.80;;;10.82;34.10
61359;BME280;47228;46.762;23.598;2023-03-13T11:03:14;97535.38;;;11.09;33.64
61359;BME280;47228;46.762;23.598;2023-03-13T11:06:01;97530.08;;;11.19;32.91
61359;BME280;47228;46.762;23.598;2023-03-13T11:08:34;97525.78;;;11.29;32.52
61359;BME280;47228;46.762;23.598;2023-03-13T11:11:04;97517.29;;;11.44;32.64
61359;BME280;47228;46.762;23.598;2023-03-13T11:13:40;97516.41;;;11.59;32.31
61359;BME280;47228;46.762;23.598;2023-03-13T11:16:28;97512.02;;;11.74;32.96
61359;BME280;47228;46.762;23.598;2023-03-13T11:19:16;97498.41;;;11.85;32.13
61359;BME280;47228;46.762;23.598;2023-03-13T11:24:56;97497.40;;;11.81;32.37
61359;BME280;47228;46.762;23.598;2023-03-13T11:33:11;97488.56;;;11.95;32.57
61359;BME280;47228;46.762;23.598;2023-03-13T11:38:47;97480.38;;;11.78;33.00
61359;BME280;47228;46.762;23.598;2023-03-13T11:52:42;97479.42;;;10.97;32.44
61359;BME280;47228;46.762;23.598;2023-03-13T12:03:19;97477.15;;;10.60;33.01
61359;BME280;47228;46.762;23.598;2023-03-13T12:05:54;97471.87;;;10.58;32.49
61359;BME280;47228;46.762;23.598;2023-03-13T12:08:29;97471.13;;;10.57;32.97
61359;BME280;47228;46.762;23.598;2023-03-13T12:14:10;97468.71;;;10.57;32.93
61359;BME280;47228;46.762;23.598;2023-03-13T12:16:50;97472.39;;;10.57;33.28
61359;BME280;47228;46.762;23.598;2023-03-13T12:19:36;97469.57;;;10.57;32.88
61359;BME280;47228;46.762;23.598;2023-03-13T12:22:18;97466.30;;;10.56;32.27
61359;BME280;47228;46.762;23.598;2023-03-13T12:24:59;97464.73;;;10.50;31.95
61359;BME280;47228;46.762;23.598;2023-03-13T12:27:34;97465.09;;;10.45;32.38
61359;BME280;47228;46.762;23.598;2023-03-13T12:33:20;97453.20;;;10.39;32.38
61359;BME280;47228;46.762;23.598;2023-03-13T12:36:00;97452.30;;;10.42;32.87
61359;BME280;47228;46.762;23.598;2023-03-13T12:38:37;97447.65;;;10.45;32.53
61359;BME280;47228;46.762;23.598;2023-03-13T12:41:17;97446.52;;;10.51;32.22
61359;BME280;47228;46.762;23.598;2023-03-13T12:43:53;97449.02;;;10.53;32.18
61359;BME280;47228;46.762;23.598;2023-03-13T12:46:40;97450.16;;;10.54;31.74
61359;BME280;47228;46.762;23.598;2023-03-13T12:49:25;97447.13;;;10.50;31.14
61359;BME280;47228;46.762;23.598;2023-03-13T12:57:42;97443.48;;;10.45;31.95
61359;BME280;47228;46.762;23.598;2023-03-13T13:00:22;97442.52;;;10.48;31.00
61359;BME280;47228;46.762;23.598;2023-03-13T13:03:14;97439.54;;;10.51;30.36
61359;BME280;47228;46.762;23.598;2023-03-13T13:06:01;97436.14;;;10.52;30.88
61359;BME280;47228;46.762;23.598;2023-03-13T13:08:36;97428.83;;;10.56;30.55
61359;BME280;47228;46.762;23.598;2023-03-13T13:14:33;97427.33;;;10.52;29.68
61359;BME280;47228;46.762;23.598;2023-03-13T13:24:58;97410.80;;;10.39;30.47
61359;BME280;47228;46.762;23.598;2023-03-13T13:37:41;97399.65;;;10.46;30.85
61359;BME280;47228;46.762;23.598;2023-03-13T13:40:28;97396.10;;;10.49;30.51
61359;BME280;47228;46.762;23.598;2023-03-13T13:43:02;97392.02;;;10.52;30.24
61359;BME280;47228;46.762;23.598;2023-03-13T13:45:35;97395.16;;;10.55;30.38
61359;BME280;47228;46.762;23.598;2023-03-13T13:48:29;97389.58;;;10.57;30.32
61359;BME280;47228;46.762;23.598;2023-03-13T13:53:47;97385.62;;;10.60;30.68
61359;BME280;47228;46.762;23.598;2023-03-13T14:01:50;97381.01;;;10.67;31.22
61359;BME280;47228;46.762;23.598;2023-03-13T14:05:06;97375.98;;;10.65;30.85
61359;BME280;47228;46.762;23.598;2023-03-13T14:10:25;97370.05;;;10.63;30.10
61359;BME280;47228;46.762;23.598;2023-03-13T14:12:57;97363.71;;;10.61;30.18
61359;BME280;47228;46.762;23.598;2023-03-13T14:15:31;97363.55;;;10.62;30.60
61359;BME280;47228;46.762;23.598;2023-03-13T14:20:37;97360.83;;;10.83;30.38
61359;BME280;47228;46.762;23.598;2023-03-13T14:23:08;97359.42;;;10.91;30.51
61359;BME280;47228;46.762;23.598;2023-03-13T14:25:54;97353.74;;;10.94;30.63
61359;BME280;47228;46.762;23.598;2023-03-13T14:28:24;97349.49;;;10.91;30.38
61359;BME280;47228;46.762;23.598;2023-03-13T14:30:55;97342.64;;;10.88;30.76
61359;BME280;47228;46.762;23.598;2023-03-13T14:33:25;97336.13;;;10.84;30.81
61359;BME280;47228;46.762;23.598;2023-03-13T14:35:54;97334.14;;;10.77;31.12
61359;BME280;47228;46.762;23.598;2023-03-13T14:38:28;97329.85;;;10.71;31.37
61359;BME280;47228;46.762;23.598;2023-03-13T14:40:59;97323.72;;;10.65;31.71
61359;BME280;47228;46.762;23.598;2023-03-13T14:45:59;97313.05;;;10.50;31.44
61359;BME280;47228;46.762;23.598;2023-03-13T14:48:32;97312.98;;;10.45;31.20
61359;BME280;47228;46.762;23.598;2023-03-13T14:53:53;97308.63;;;10.34;31.27
61359;BME280;47228;46.762;23.598;2023-03-13T14:56:36;97304.14;;;10.27;31.11
61359;BME280;47228;46.762;23.598;2023-03-13T14:59:17;97304.78;;;10.22;31.03
61359;BME280;47228;46.762;23.598;2023-03-13T15:01:57;97304.81;;;10.17;30.56